Time,TemperatureF,DewpointF,PressureIn,WindDirection,WindDirectionDegrees,WindSpeedMPH,WindSpeedGustMPH,Humidity,HourlyPrecipIn,Conditions,Clouds,dailyrainin,SoftwareType,DateUTC
2013-01-18 00:02:00,50.1,46.4,29.95,NNW,328,24.0,25.0,87,0.00,,,0.00,Wunderground v.1.15,2013-01-18 05:02:00,
2013-01-18 00:04:00,50.4,47.3,29.95,NNW,330,24.0,25.0,89,0.00,,,0.00,Wunderground v.1.15,2013-01-18 05:04:00,
2013-01-18 00:06:00,50.2,46.8,29.95,NW,323,24.0,30.0,88,0.00,,,0.00,Wunderground v.1.15,2013-01-18 05:06:00,
2013-01-18 00:10:00,50.2,46.8,29.95,NW,311,23.0,25.0,88,0.00,,,0.00,Wunderground v.1.15,2013-01-18 05:10:00,
2013-01-18 00:16:00,50.4,47.3,29.96,NW,318,23.0,25.0,89,0.00,,,0.00,Wunderground v.1.15,2013-01-18 05:16:00,
2013-01-18 00:22:00,50.5,47.4,29.96,NW,320,25.0,27.0,89,0.00,,,0.00,Wunderground v.1.15,2013-01-18 05:22:00,
2013-01-18 00:28:00,50.5,47.4,29.96,NW,323,25.0,28.0,89,0.00,,,0.00,Wunderground v.1.15,2013-01-18 05:28:00,
2013-01-18 00:34:00,50.7,47.9,29.97,NNW,337,24.0,29.0,90,0.00,,,0.00,Wunderground v.1.15,2013-01-18 05:34:00,
2013-01-18 00:40:00,50.5,47.4,29.97,NNW,329,26.0,26.0,89,0.00,,,0.00,Wunderground v.1.15,2013-01-18 05:40:00,
2013-01-18 00:46:00,50.7,47.9,29.98,NW,325,26.0,26.0,90,0.00,,,0.00,Wunderground v.1.15,2013-01-18 05:46:00,
2013-01-18 00:52:00,51.0,48.2,29.98,NNW,335,26.0,28.0,90,0.00,,,0.00,Wunderground v.1.15,2013-01-18 05:52:00,
2013-01-18 00:58:00,51.0,48.8,29.98,NW,326,28.0,30.0,92,0.00,,,0.00,Wunderground v.1.15,2013-01-18 05:58:00,
2013-01-18 01:04:00,51.1,48.9,29.99,NNW,344,29.0,29.0,92,0.00,,,0.00,Wunderground v.1.15,2013-01-18 06:04:00,
2013-01-18 01:10:00,51.4,49.4,29.99,North,352,30.0,37.0,93,0.00,,,0.00,Wunderground v.1.15,2013-01-18 06:10:00,
2013-01-18 01:16:00,50.8,48.0,30.00,North,352,30.0,37.0,90,0.00,,,0.00,Wunderground v.1.15,2013-01-18 06:16:00,
2013-01-18 01:22:00,50.5,46.8,30.00,North,354,26.0,28.0,87,0.00,,,0.00,Wunderground v.1.15,2013-01-18 06:22:00,
2013-01-18 01:28:00,50.4,47.3,30.00,North,359,25.0,28.0,89,0.00,,,0.00,Wunderground v.1.15,2013-01-18 06:28:00,
2013-01-18 01:34:00,50.1,46.4,30.02,North,0,29.0,34.0,87,0.00,,,0.00,Wunderground v.1.15,2013-01-18 06:34:00,
2013-01-18 01:40:00,49.6,46.5,30.02,North,353,28.0,28.0,89,0.00,,,0.00,Wunderground v.1.15,2013-01-18 06:40:00,
2013-01-18 01:46:00,49.9,47.4,30.03,North,352,26.0,29.0,91,0.00,,,0.00,Wunderground v.1.15,2013-01-18 06:46:00,
2013-01-18 01:52:00,49.6,46.8,30.03,North,349,27.0,32.0,90,0.00,,,0.00,Wunderground v.1.15,2013-01-18 06:52:00,
2013-01-18 01:58:00,49.6,47.1,30.03,North,0,29.0,32.0,91,0.00,,,0.00,Wunderground v.1.15,2013-01-18 06:58:00,
2013-01-18 02:04:00,49.4,47.2,30.06,North,1,26.0,30.0,92,0.00,,,0.00,Wunderground v.1.15,2013-01-18 07:04:00,
2013-01-18 02:10:00,49.4,46.9,30.06,NNW,346,24.0,26.0,91,0.00,,,0.00,Wunderground v.1.15,2013-01-18 07:10:00,
2013-01-18 02:16:00,49.2,47.0,30.07,North,349,25.0,27.0,92,0.00,,,0.00,Wunderground v.1.15,2013-01-18 07:16:00,
2013-01-18 02:22:00,49.2,47.0,30.07,NNW,346,27.0,29.0,92,0.00,,,0.00,Wunderground v.1.15,2013-01-18 07:22:00,
2013-01-18 02:28:00,49.4,47.5,30.07,North,357,26.0,29.0,93,0.00,,,0.00,Wunderground v.1.15,2013-01-18 07:28:00,
2013-01-18 02:34:00,48.8,46.6,30.08,NNW,344,24.0,25.0,92,0.00,,,0.00,Wunderground v.1.15,2013-01-18 07:34:00,
2013-01-18 02:40:00,48.6,46.1,30.08,North,3,23.0,23.0,91,0.00,,,0.00,Wunderground v.1.15,2013-01-18 07:40:00,
2013-01-18 02:46:00,48.6,46.1,30.10,North,350,25.0,32.0,91,0.00,,,0.00,Wunderground v.1.15,2013-01-18 07:46:00,
2013-01-18 02:52:00,48.6,46.1,30.10,North,0,26.0,35.0,91,0.00,,,0.00,Wunderground v.1.15,2013-01-18 07:52:00,
2013-01-18 02:58:00,48.3,45.8,30.10,North,349,27.0,35.0,91,0.00,,,0.00,Wunderground v.1.15,2013-01-18 07:58:00,
2013-01-18 03:04:00,48.5,46.3,30.10,North,0,27.0,29.0,92,0.00,,,0.00,Wunderground v.1.15,2013-01-18 08:04:00,
2013-01-18 03:10:00,48.8,46.6,30.10,North,0,27.0,28.0,92,0.00,,,0.00,Wunderground v.1.15,2013-01-18 08:10:00,
2013-01-18 03:16:00,48.6,46.4,30.10,North,0,28.0,34.0,92,0.00,,,0.00,Wunderground v.1.15,2013-01-18 08:16:00,
2013-01-18 03:22:00,48.6,47.0,30.10,North,359,28.0,33.0,94,0.00,,,0.00,Wunderground v.1.15,2013-01-18 08:22:00,
2013-01-18 03:28:00,48.6,46.7,30.10,North,0,28.0,33.0,93,0.00,,,0.00,Wunderground v.1.15,2013-01-18 08:28:00,
2013-01-18 03:34:00,48.3,46.4,30.10,North,0,27.0,30.0,93,0.00,,,0.00,Wunderground v.1.15,2013-01-18 08:34:00,
2013-01-18 03:40:00,48.6,47.2,30.10,North,350,27.0,27.0,95,0.00,,,0.00,Wunderground v.1.15,2013-01-18 08:40:00,
2013-01-18 03:46:00,48.2,46.3,30.11,North,354,26.0,28.0,93,0.00,,,0.00,Wunderground v.1.15,2013-01-18 08:46:00,
2013-01-18 03:52:00,48.3,46.7,30.11,North,353,24.0,26.0,94,0.00,,,0.00,Wunderground v.1.15,2013-01-18 08:52:00,
2013-01-18 03:58:00,48.2,46.8,30.11,North,356,25.0,34.0,95,0.00,,,0.00,Wunderground v.1.15,2013-01-18 08:58:00,
2013-01-18 04:04:00,47.9,46.3,30.13,North,356,27.0,30.0,94,0.00,,,0.00,Wunderground v.1.15,2013-01-18 09:04:00,
2013-01-18 04:10:00,47.4,45.2,30.13,North,353,28.0,28.0,92,0.00,,,0.00,Wunderground v.1.15,2013-01-18 09:10:00,
2013-01-18 04:16:00,47.4,45.2,30.14,North,357,26.0,30.0,92,0.00,,,0.00,Wunderground v.1.15,2013-01-18 09:16:00,
2013-01-18 04:22:00,47.1,44.9,30.14,NNE,14,23.0,24.0,92,0.00,,,0.00,Wunderground v.1.15,2013-01-18 09:22:00,
2013-01-18 04:28:00,47.3,45.4,30.14,North,353,22.0,26.0,93,0.00,,,0.00,Wunderground v.1.15,2013-01-18 09:28:00,
2013-01-18 04:34:00,47.3,45.1,30.14,North,356,23.0,26.0,92,0.00,,,0.00,Wunderground v.1.15,2013-01-18 09:34:00,
2013-01-18 04:40:00,46.5,43.4,30.14,NNE,24,22.0,27.0,89,0.00,,,0.00,Wunderground v.1.15,2013-01-18 09:40:00,
2013-01-18 04:46:00,46.8,44.3,30.15,North,0,21.0,27.0,91,0.00,,,0.00,Wunderground v.1.15,2013-01-18 09:46:00,
2013-01-18 04:52:00,47.0,44.5,30.15,North,353,23.0,32.0,91,0.00,,,0.00,Wunderground v.1.15,2013-01-18 09:52:00,
2013-01-18 04:58:00,47.1,45.2,30.15,North,356,23.0,32.0,93,0.00,,,0.00,Wunderground v.1.15,2013-01-18 09:58:00,
2013-01-18 05:04:00,46.7,45.3,30.16,NNW,347,21.0,22.0,95,0.00,,,0.00,Wunderground v.1.15,2013-01-18 10:04:00,
2013-01-18 05:10:00,46.2,44.8,30.16,North,356,19.0,19.0,95,0.00,,,0.00,Wunderground v.1.15,2013-01-18 10:10:00,
2013-01-18 05:16:00,46.2,44.8,30.17,North,10,17.0,19.0,95,0.00,,,0.00,Wunderground v.1.15,2013-01-18 10:16:00,
2013-01-18 05:22:00,46.2,45.1,30.17,North,357,19.0,19.0,96,0.00,,,0.00,Wunderground v.1.15,2013-01-18 10:22:00,
2013-01-18 05:28:00,46.0,44.6,30.17,North,359,19.0,25.0,95,0.00,,,0.00,Wunderground v.1.15,2013-01-18 10:28:00,
2013-01-18 05:34:00,46.0,44.9,30.18,North,0,18.0,22.0,96,0.00,,,0.00,Wunderground v.1.15,2013-01-18 10:34:00,
2013-01-18 05:40:00,45.8,44.7,30.18,NNE,20,17.0,17.0,96,0.00,,,0.00,Wunderground v.1.15,2013-01-18 10:40:00,
2013-01-18 05:46:00,45.7,44.6,30.19,North,350,16.0,17.0,96,0.00,,,0.00,Wunderground v.1.15,2013-01-18 10:46:00,
2013-01-18 05:52:00,45.5,44.2,30.19,North,352,16.0,18.0,95,0.00,,,0.00,Wunderground v.1.15,2013-01-18 10:52:00,
2013-01-18 05:58:00,45.4,44.1,30.19,North,1,15.0,18.0,95,0.00,,,0.00,Wunderground v.1.15,2013-01-18 10:58:00,
2013-01-18 06:04:00,45.4,43.8,30.20,North,359,14.0,18.0,94,0.00,,,0.00,Wunderground v.1.15,2013-01-18 11:04:00,
2013-01-18 06:10:00,45.1,43.5,30.20,North,0,13.0,16.0,94,0.00,,,0.00,Wunderground v.1.15,2013-01-18 11:10:00,
2013-01-18 06:16:00,44.9,43.0,30.21,NNE,16,13.0,20.0,93,0.00,,,0.00,Wunderground v.1.15,2013-01-18 11:16:00,
2013-01-18 06:22:00,44.9,43.0,30.21,NNE,18,13.0,13.0,93,0.00,,,0.00,Wunderground v.1.15,2013-01-18 11:22:00,
2013-01-18 06:28:00,44.6,42.7,30.21,North,7,11.0,14.0,93,0.00,,,0.00,Wunderground v.1.15,2013-01-18 11:28:00,
2013-01-18 06:34:00,44.5,42.9,30.22,North,356,12.0,12.0,94,0.00,,,0.00,Wunderground v.1.15,2013-01-18 11:34:00,
2013-01-18 06:40:00,44.6,43.3,30.22,North,350,11.0,17.0,95,0.00,,,0.00,Wunderground v.1.15,2013-01-18 11:40:00,
2013-01-18 06:46:00,44.5,42.9,30.23,North,0,11.0,17.0,94,0.00,,,0.00,Wunderground v.1.15,2013-01-18 11:46:00,
2013-01-18 06:52:00,44.5,43.2,30.23,NNE,14,13.0,20.0,95,0.00,,,0.00,Wunderground v.1.15,2013-01-18 11:52:00,
2013-01-18 06:58:00,44.3,43.0,30.23,NNE,14,14.0,20.0,95,0.00,,,0.00,Wunderground v.1.15,2013-01-18 11:58:00,
2013-01-18 07:04:00,44.3,43.2,30.24,North,0,14.0,16.0,96,0.00,,,0.00,Wunderground v.1.15,2013-01-18 12:04:00,
2013-01-18 07:10:00,44.5,43.7,30.24,North,349,13.0,19.0,97,0.00,,,0.00,Wunderground v.1.15,2013-01-18 12:10:00,
2013-01-18 07:16:00,44.3,43.5,30.25,North,353,14.0,19.0,97,0.00,,,0.00,Wunderground v.1.15,2013-01-18 12:16:00,
2013-01-18 07:22:00,44.3,43.8,30.25,North,3,14.0,14.0,98,0.00,,,0.00,Wunderground v.1.15,2013-01-18 12:22:00,
2013-01-18 07:28:00,44.6,44.1,30.25,North,353,14.0,16.0,98,0.00,,,0.00,Wunderground v.1.15,2013-01-18 12:28:00,
2013-01-18 07:34:00,44.3,43.8,30.26,North,349,13.0,16.0,98,0.00,,,0.00,Wunderground v.1.15,2013-01-18 12:34:00,
2013-01-18 07:40:00,44.1,43.3,30.26,North,357,13.0,16.0,97,0.00,,,0.00,Wunderground v.1.15,2013-01-18 12:40:00,
2013-01-18 07:46:00,44.2,43.4,30.27,North,350,12.0,16.0,97,0.00,,,0.00,Wunderground v.1.15,2013-01-18 12:46:00,
2013-01-18 07:52:00,44.2,43.1,30.27,North,3,11.0,15.0,96,0.00,,,0.00,Wunderground v.1.15,2013-01-18 12:52:00,
2013-01-18 07:58:00,44.1,42.8,30.27,North,0,11.0,17.0,95,0.00,,,0.00,Wunderground v.1.15,2013-01-18 12:58:00,
2013-01-18 08:04:00,44.1,42.8,30.28,North,11,12.0,13.0,95,0.00,,,0.00,Wunderground v.1.15,2013-01-18 13:04:00,
2013-01-18 08:10:00,43.9,42.3,30.28,NE,34,13.0,13.0,94,0.00,,,0.00,Wunderground v.1.15,2013-01-18 13:10:00,
2013-01-18 08:16:00,43.9,42.3,30.29,NNE,20,14.0,17.0,94,0.00,,,0.00,Wunderground v.1.15,2013-01-18 13:16:00,
2013-01-18 08:22:00,44.1,42.5,30.29,North,4,14.0,14.0,94,0.00,,,0.00,Wunderground v.1.15,2013-01-18 13:22:00,
2013-01-18 08:28:00,44.2,42.3,30.29,North,10,13.0,19.0,93,0.00,,,0.00,Wunderground v.1.15,2013-01-18 13:28:00,
2013-01-18 08:34:00,44.5,42.6,30.30,North,6,13.0,14.0,93,0.00,,,0.00,Wunderground v.1.15,2013-01-18 13:34:00,
2013-01-18 08:40:00,44.5,42.3,30.30,North,8,13.0,16.0,92,0.00,,,0.00,Wunderground v.1.15,2013-01-18 13:40:00,
2013-01-18 08:46:00,44.6,42.4,30.31,NNE,23,13.0,16.0,92,0.00,,,0.00,Wunderground v.1.15,2013-01-18 13:46:00,
2013-01-18 08:52:00,44.6,42.4,30.31,North,353,14.0,19.0,92,0.00,,,0.00,Wunderground v.1.15,2013-01-18 13:52:00,
2013-01-18 08:58:00,44.6,42.4,30.31,North,6,15.0,22.0,92,0.00,,,0.00,Wunderground v.1.15,2013-01-18 13:58:00,
2013-01-18 09:04:00,44.9,42.7,30.31,North,0,14.0,15.0,92,0.00,,,0.00,Wunderground v.1.15,2013-01-18 14:04:00,
2013-01-18 09:10:00,44.9,42.4,30.31,North,3,14.0,19.0,91,0.00,,,0.00,Wunderground v.1.15,2013-01-18 14:10:00,
2013-01-18 09:16:00,44.9,42.4,30.33,NNE,23,15.0,21.0,91,0.00,,,0.00,Wunderground v.1.15,2013-01-18 14:16:00,
2013-01-18 09:22:00,45.1,42.3,30.33,North,357,15.0,15.0,90,0.00,,,0.00,Wunderground v.1.15,2013-01-18 14:22:00,
2013-01-18 09:28:00,45.4,42.1,30.33,North,6,15.0,20.0,88,0.00,,,0.00,Wunderground v.1.15,2013-01-18 14:28:00,
2013-01-18 09:34:00,45.8,42.4,30.33,North,8,15.0,19.0,88,0.00,,,0.00,Wunderground v.1.15,2013-01-18 14:34:00,
2013-01-18 09:40:00,46.1,42.1,30.33,North,359,15.0,15.0,86,0.00,,,0.00,Wunderground v.1.15,2013-01-18 14:40:00,
2013-01-18 09:46:00,46.1,41.5,30.34,North,0,15.0,21.0,84,0.00,,,0.00,Wunderground v.1.15,2013-01-18 14:46:00,
2013-01-18 09:52:00,46.4,41.2,30.34,NNE,17,16.0,18.0,82,0.00,,,0.00,Wunderground v.1.15,2013-01-18 14:52:00,
2013-01-18 09:58:00,46.5,41.0,30.34,North,0,16.0,20.0,81,0.00,,,0.00,Wunderground v.1.15,2013-01-18 14:58:00,
2013-01-18 10:04:00,47.1,41.6,30.34,North,11,13.0,15.0,81,0.00,,,0.00,Wunderground v.1.15,2013-01-18 15:04:00,
2013-01-18 10:10:00,47.1,40.9,30.34,North,7,14.0,14.0,79,0.00,,,0.00,Wunderground v.1.15,2013-01-18 15:10:00,
2013-01-18 10:16:00,47.7,41.5,30.35,NE,41,13.0,19.0,79,0.00,,,0.00,Wunderground v.1.15,2013-01-18 15:16:00,
2013-01-18 10:22:00,48.2,41.3,30.35,North,349,11.0,12.0,77,0.00,,,0.00,Wunderground v.1.15,2013-01-18 15:22:00,
2013-01-18 10:28:00,48.2,40.6,30.35,NNE,31,12.0,20.0,75,0.00,,,0.00,Wunderground v.1.15,2013-01-18 15:28:00,
2013-01-18 10:34:00,48.5,40.2,30.35,NNE,21,11.0,13.0,73,0.00,,,0.00,Wunderground v.1.15,2013-01-18 15:34:00,
2013-01-18 10:40:00,48.9,41.0,30.35,NNE,27,11.0,12.0,74,0.00,,,0.00,Wunderground v.1.15,2013-01-18 15:40:00,
2013-01-18 10:46:00,48.9,39.2,30.36,North,353,14.0,18.0,69,0.00,,,0.00,Wunderground v.1.15,2013-01-18 15:46:00,
2013-01-18 10:52:00,49.1,39.4,30.36,NNE,25,15.0,15.0,69,0.00,,,0.00,Wunderground v.1.15,2013-01-18 15:52:00,
2013-01-18 10:58:00,49.4,39.3,30.36,NNE,27,12.0,15.0,68,0.00,,,0.00,Wunderground v.1.15,2013-01-18 15:58:00,
2013-01-18 11:04:00,49.6,38.3,30.36,North,7,11.0,12.0,65,0.00,,,0.00,Wunderground v.1.15,2013-01-18 16:04:00,
2013-01-18 11:10:00,50.1,39.6,30.36,North,3,10.0,17.0,67,0.00,,,0.00,Wunderground v.1.15,2013-01-18 16:10:00,
2013-01-18 11:16:00,50.2,38.1,30.36,NE,40,8.0,17.0,63,0.00,,,0.00,Wunderground v.1.15,2013-01-18 16:16:00,
2013-01-18 11:22:00,50.7,37.3,30.36,NNE,24,8.0,8.0,60,0.00,,,0.00,Wunderground v.1.15,2013-01-18 16:22:00,
2013-01-18 11:28:00,51.0,36.3,30.36,NE,51,9.0,13.0,57,0.00,,,0.00,Wunderground v.1.15,2013-01-18 16:28:00,
2013-01-18 11:34:00,51.3,36.1,30.35,NNE,17,10.0,10.0,56,0.00,,,0.00,Wunderground v.1.15,2013-01-18 16:34:00,
2013-01-18 11:40:00,51.7,37.8,30.35,North,10,10.0,13.0,59,0.00,,,0.00,Wunderground v.1.15,2013-01-18 16:40:00,
2013-01-18 11:46:00,51.9,37.6,30.34,NE,35,9.0,13.0,58,0.00,,,0.00,Wunderground v.1.15,2013-01-18 16:46:00,
2013-01-18 11:52:00,52.0,39.0,30.34,NE,38,10.0,15.0,61,0.00,,,0.00,Wunderground v.1.15,2013-01-18 16:52:00,
2013-01-18 11:58:00,52.2,36.5,30.34,North,357,10.0,15.0,55,0.00,,,0.00,Wunderground v.1.15,2013-01-18 16:58:00,
2013-01-18 12:04:00,52.3,36.6,30.34,NNE,17,8.0,11.0,55,0.00,,,0.00,Wunderground v.1.15,2013-01-18 17:04:00,
2013-01-18 12:10:00,52.5,35.8,30.34,NNE,31,10.0,10.0,53,0.00,,,0.00,Wunderground v.1.15,2013-01-18 17:10:00,
2013-01-18 12:16:00,52.5,35.4,30.34,NNW,332,12.0,16.0,52,0.00,,,0.00,Wunderground v.1.15,2013-01-18 17:16:00,
2013-01-18 12:22:00,53.1,36.4,30.34,North,0,10.0,11.0,53,0.00,,,0.00,Wunderground v.1.15,2013-01-18 17:22:00,
2013-01-18 12:28:00,53.2,36.5,30.34,North,8,8.0,11.0,53,0.00,,,0.00,Wunderground v.1.15,2013-01-18 17:28:00,
2013-01-18 12:34:00,53.3,35.6,30.33,NNE,14,11.0,13.0,51,0.00,,,0.00,Wunderground v.1.15,2013-01-18 17:34:00,
2013-01-18 12:40:00,53.3,34.1,30.33,NNE,25,11.0,11.0,48,0.00,,,0.00,Wunderground v.1.15,2013-01-18 17:40:00,
2013-01-18 12:46:00,53.6,35.9,30.32,North,3,11.0,16.0,51,0.00,,,0.00,Wunderground v.1.15,2013-01-18 17:46:00,
2013-01-18 12:52:00,53.9,35.2,30.32,North,8,12.0,14.0,49,0.00,,,0.00,Wunderground v.1.15,2013-01-18 17:52:00,
2013-01-18 12:58:00,53.8,35.1,30.32,NNE,14,12.0,15.0,49,0.00,,,0.00,Wunderground v.1.15,2013-01-18 17:58:00,
2013-01-18 13:04:00,53.9,35.7,30.32,North,4,11.0,12.0,50,0.00,,,0.00,Wunderground v.1.15,2013-01-18 18:04:00,
2013-01-18 13:10:00,54.2,37.4,30.32,NNE,20,9.0,9.0,53,0.00,,,0.00,Wunderground v.1.15,2013-01-18 18:10:00,
2013-01-18 13:16:00,54.4,36.6,30.31,North,359,9.0,16.0,51,0.00,,,0.00,Wunderground v.1.15,2013-01-18 18:16:00,
2013-01-18 13:22:00,54.2,35.4,30.31,NNE,25,10.0,12.0,49,0.16,,,0.03,Wunderground v.1.15,2013-01-18 18:22:00,
2013-01-18 13:28:00,54.5,34.1,30.31,NNE,17,8.0,12.0,46,0.06,,,0.03,Wunderground v.1.15,2013-01-18 18:28:00,
2013-01-18 13:34:00,55.1,38.3,30.31,North,8,7.0,13.0,53,0.04,,,0.03,Wunderground v.1.15,2013-01-18 18:34:00,
2013-01-18 13:40:00,54.8,34.9,30.31,North,0,8.0,12.0,47,0.00,,,0.03,Wunderground v.1.15,2013-01-18 18:40:00,
2013-01-18 13:46:00,55.0,35.1,30.31,North,0,9.0,12.0,47,0.00,,,0.03,Wunderground v.1.15,2013-01-18 18:46:00,
2013-01-18 13:52:00,55.3,35.4,30.31,NNE,32,7.0,8.0,47,0.00,,,0.03,Wunderground v.1.15,2013-01-18 18:52:00,
2013-01-18 13:58:00,55.6,37.7,30.31,North,354,6.0,8.0,51,0.00,,,0.03,Wunderground v.1.15,2013-01-18 18:58:00,
2013-01-18 14:04:00,55.4,34.9,30.31,North,0,6.0,10.0,46,0.00,,,0.03,Wunderground v.1.15,2013-01-18 19:04:00,
2013-01-18 14:10:00,55.6,34.6,30.31,North,0,8.0,10.0,45,0.00,,,0.03,Wunderground v.1.15,2013-01-18 19:10:00,
2013-01-18 14:16:00,55.7,38.3,30.31,North,6,8.0,13.0,52,0.00,,,0.03,Wunderground v.1.15,2013-01-18 19:16:00,
2013-01-18 14:22:00,56.0,35.5,30.31,North,354,7.0,12.0,46,0.00,,,0.03,Wunderground v.1.15,2013-01-18 19:22:00,
2013-01-18 14:28:00,56.2,35.7,30.31,NE,40,9.0,12.0,46,0.00,,,0.03,Wunderground v.1.15,2013-01-18 19:28:00,
2013-01-18 14:34:00,56.2,35.1,30.31,NNE,31,8.0,14.0,45,0.00,,,0.03,Wunderground v.1.15,2013-01-18 19:34:00,
2013-01-18 14:40:00,56.0,34.9,30.31,North,0,8.0,8.0,45,0.00,,,0.03,Wunderground v.1.15,2013-01-18 19:40:00,
2013-01-18 14:46:00,56.0,35.5,30.31,North,359,8.0,8.0,46,0.00,,,0.03,Wunderground v.1.15,2013-01-18 19:46:00,
2013-01-18 14:52:00,56.3,32.9,30.31,North,0,10.0,10.0,41,0.00,,,0.03,Wunderground v.1.15,2013-01-18 19:52:00,
2013-01-18 14:58:00,56.3,34.1,30.31,NNE,13,10.0,11.0,43,0.00,,,0.03,Wunderground v.1.15,2013-01-18 19:58:00,
2013-01-18 15:04:00,56.3,34.1,30.31,North,4,9.0,10.0,43,0.00,,,0.03,Wunderground v.1.15,2013-01-18 20:04:00,
2013-01-18 15:10:00,56.6,33.8,30.31,North,11,9.0,9.0,42,0.00,,,0.03,Wunderground v.1.15,2013-01-18 20:10:00,
2013-01-18 15:16:00,56.5,36.0,30.31,NNE,28,8.0,12.0,46,0.00,,,0.03,Wunderground v.1.15,2013-01-18 20:16:00,
2013-01-18 15:22:00,56.6,35.5,30.31,NNE,24,9.0,12.0,45,0.00,,,0.03,Wunderground v.1.15,2013-01-18 20:22:00,
2013-01-18 15:28:00,56.7,36.1,30.31,NNE,16,8.0,12.0,46,0.00,,,0.03,Wunderground v.1.15,2013-01-18 20:28:00,
2013-01-18 15:34:00,56.9,32.8,30.31,NNE,31,9.0,10.0,40,0.00,,,0.03,Wunderground v.1.15,2013-01-18 20:34:00,
2013-01-18 15:40:00,56.9,32.2,30.31,North,3,9.0,9.0,39,0.00,,,0.03,Wunderground v.1.15,2013-01-18 20:40:00,
2013-01-18 15:46:00,56.9,33.4,30.32,NNE,27,7.0,9.0,41,0.00,,,0.03,Wunderground v.1.15,2013-01-18 20:46:00,
2013-01-18 15:52:00,56.7,33.2,30.32,North,359,7.0,11.0,41,0.00,,,0.03,Wunderground v.1.15,2013-01-18 20:52:00,
2013-01-18 15:58:00,57.0,35.3,30.32,North,8,7.0,11.0,44,0.00,,,0.03,Wunderground v.1.15,2013-01-18 20:58:00,
2013-01-18 16:04:00,57.0,34.1,30.32,North,3,7.0,12.0,42,0.00,,,0.03,Wunderground v.1.15,2013-01-18 21:04:00,
2013-01-18 16:10:00,57.0,33.5,30.32,North,0,7.0,11.0,41,0.00,,,0.03,Wunderground v.1.15,2013-01-18 21:10:00,
2013-01-18 16:16:00,56.7,33.2,30.33,North,0,7.0,11.0,41,0.00,,,0.03,Wunderground v.1.15,2013-01-18 21:16:00,
2013-01-18 16:22:00,56.9,35.2,30.33,NNE,24,7.0,7.0,44,0.00,,,0.03,Wunderground v.1.15,2013-01-18 21:22:00,
2013-01-18 16:28:00,56.6,33.8,30.33,North,0,8.0,10.0,42,0.00,,,0.03,Wunderground v.1.15,2013-01-18 21:28:00,
2013-01-18 16:34:00,56.9,35.2,30.33,NE,45,6.0,8.0,44,0.00,,,0.03,Wunderground v.1.15,2013-01-18 21:34:00,
2013-01-18 16:40:00,56.6,34.3,30.33,North,4,6.0,6.0,43,0.00,,,0.03,Wunderground v.1.15,2013-01-18 21:40:00,
2013-01-18 16:46:00,56.6,33.2,30.34,NE,37,6.0,7.0,41,0.00,,,0.03,Wunderground v.1.15,2013-01-18 21:46:00,
2013-01-18 16:52:00,56.5,35.4,30.34,NNE,20,6.0,6.0,45,0.00,,,0.03,Wunderground v.1.15,2013-01-18 21:52:00,
2013-01-18 16:58:00,56.5,36.5,30.34,NNE,30,6.0,12.0,47,0.00,,,0.03,Wunderground v.1.15,2013-01-18 21:58:00,
2013-01-18 17:04:00,56.0,35.5,30.34,North,0,7.0,7.0,46,0.00,,,0.03,Wunderground v.1.15,2013-01-18 22:04:00,
2013-01-18 17:10:00,55.9,35.4,30.34,NE,41,5.0,5.0,46,0.00,,,0.03,Wunderground v.1.15,2013-01-18 22:10:00,
2013-01-18 17:16:00,55.7,36.8,30.35,NNE,14,6.0,7.0,49,0.00,,,0.03,Wunderground v.1.15,2013-01-18 22:16:00,
2013-01-18 17:22:00,55.4,36.5,30.35,North,11,7.0,7.0,49,0.00,,,0.03,Wunderground v.1.15,2013-01-18 22:22:00,
2013-01-18 17:28:00,55.0,35.7,30.35,NE,52,7.0,11.0,48,0.00,,,0.03,Wunderground v.1.15,2013-01-18 22:28:00,
2013-01-18 17:34:00,54.5,34.7,30.36,NNE,17,7.0,7.0,47,0.00,,,0.03,Wunderground v.1.15,2013-01-18 22:34:00,
2013-01-18 17:40:00,54.4,36.6,30.36,NNE,23,7.0,10.0,51,0.00,,,0.03,Wunderground v.1.15,2013-01-18 22:40:00,
2013-01-18 17:46:00,54.1,35.3,30.36,North,11,7.0,10.0,49,0.00,,,0.03,Wunderground v.1.15,2013-01-18 22:46:00,
2013-01-18 17:52:00,53.9,35.2,30.36,NNE,16,6.0,8.0,49,0.00,,,0.03,Wunderground v.1.15,2013-01-18 22:52:00,
2013-01-18 17:58:00,53.8,35.1,30.36,NNE,25,6.0,11.0,49,0.00,,,0.03,Wunderground v.1.15,2013-01-18 22:58:00,
2013-01-18 18:04:00,53.6,36.4,30.36,North,1,7.0,10.0,52,0.00,,,0.03,Wunderground v.1.15,2013-01-18 23:04:00,
2013-01-18 18:10:00,53.3,36.1,30.36,NE,42,7.0,7.0,52,0.00,,,0.03,Wunderground v.1.15,2013-01-18 23:10:00,
2013-01-18 18:16:00,53.2,37.4,30.36,NNE,30,6.0,10.0,55,0.00,,,0.03,Wunderground v.1.15,2013-01-18 23:16:00,
2013-01-18 18:22:00,53.1,35.9,30.36,North,4,6.0,11.0,52,0.00,,,0.03,Wunderground v.1.15,2013-01-18 23:22:00,
2013-01-18 18:28:00,52.9,36.7,30.36,NE,40,6.0,11.0,54,0.00,,,0.03,Wunderground v.1.15,2013-01-18 23:28:00,
2013-01-18 18:34:00,52.8,37.5,30.36,NNE,30,6.0,8.0,56,0.00,,,0.03,Wunderground v.1.15,2013-01-18 23:34:00,
2013-01-18 18:40:00,52.5,36.3,30.36,NNE,27,5.0,5.0,54,0.00,,,0.03,Wunderground v.1.15,2013-01-18 23:40:00,
2013-01-18 18:46:00,52.3,35.7,30.37,NNE,20,5.0,10.0,53,0.00,,,0.03,Wunderground v.1.15,2013-01-18 23:46:00,
2013-01-18 18:52:00,52.2,36.0,30.37,NE,47,4.0,5.0,54,0.00,,,0.03,Wunderground v.1.15,2013-01-18 23:52:00,
2013-01-18 18:58:00,52.0,35.9,30.37,NE,45,4.0,6.0,54,0.00,,,0.03,Wunderground v.1.15,2013-01-18 23:58:00,
2013-01-18 19:04:00,51.9,35.8,30.37,NE,48,3.0,4.0,54,0.00,,,0.03,Wunderground v.1.15,2013-01-19 00:04:00,
2013-01-18 19:10:00,51.7,36.5,30.37,NE,34,2.0,4.0,56,0.00,,,0.03,Wunderground v.1.15,2013-01-19 00:10:00,
2013-01-18 19:16:00,51.6,35.9,30.38,ENE,62,3.0,4.0,55,0.00,,,0.03,Wunderground v.1.15,2013-01-19 00:16:00,
2013-01-18 19:22:00,51.4,37.1,30.38,NE,34,2.0,3.0,58,0.00,,,0.03,Wunderground v.1.15,2013-01-19 00:22:00,
2013-01-18 19:28:00,51.4,36.7,30.38,ENE,65,2.0,5.0,57,0.00,,,0.03,Wunderground v.1.15,2013-01-19 00:28:00,
2013-01-18 19:34:00,51.4,37.5,30.39,NE,56,3.0,6.0,59,0.00,,,0.03,Wunderground v.1.15,2013-01-19 00:34:00,
2013-01-18 19:40:00,51.3,36.1,30.39,ENE,72,3.0,3.0,56,0.00,,,0.03,Wunderground v.1.15,2013-01-19 00:40:00,
2013-01-18 19:46:00,51.0,37.2,30.39,ENE,66,3.0,6.0,59,0.00,,,0.03,Wunderground v.1.15,2013-01-19 00:46:00,
2013-01-18 19:52:00,50.5,36.3,30.39,East,100,4.0,4.0,58,0.00,,,0.03,Wunderground v.1.15,2013-01-19 00:52:00,
2013-01-18 19:58:00,50.4,38.3,30.39,NNE,25,3.0,5.0,63,0.00,,,0.03,Wunderground v.1.15,2013-01-19 00:58:00,
2013-01-18 20:04:00,50.2,39.3,30.39,East,93,3.0,4.0,66,0.00,,,0.03,Wunderground v.1.15,2013-01-19 01:04:00,
2013-01-18 20:10:00,50.1,39.6,30.39,NE,48,3.0,5.0,67,0.00,,,0.03,Wunderground v.1.15,2013-01-19 01:10:00,
2013-01-18 20:16:00,49.9,39.8,30.39,East,93,3.0,5.0,68,0.00,,,0.03,Wunderground v.1.15,2013-01-19 01:16:00,
2013-01-18 20:22:00,49.9,40.1,30.39,East,86,2.0,3.0,69,0.00,,,0.03,Wunderground v.1.15,2013-01-19 01:22:00,
2013-01-18 20:28:00,49.9,40.5,30.39,ENE,71,2.0,3.0,70,0.00,,,0.03,Wunderground v.1.15,2013-01-19 01:28:00,
2013-01-18 20:34:00,49.9,40.5,30.39,ENE,73,2.0,3.0,70,0.00,,,0.03,Wunderground v.1.15,2013-01-19 01:34:00,
2013-01-18 20:40:00,49.8,40.8,30.39,NE,37,2.0,3.0,71,0.00,,,0.03,Wunderground v.1.15,2013-01-19 01:40:00,
2013-01-18 20:46:00,49.6,40.9,30.39,NE,47,2.0,3.0,72,0.00,,,0.03,Wunderground v.1.15,2013-01-19 01:46:00,
2013-01-18 20:52:00,49.5,40.5,30.39,NE,55,2.0,2.0,71,0.00,,,0.03,Wunderground v.1.15,2013-01-19 01:52:00,
2013-01-18 20:58:00,49.4,40.0,30.39,ENE,58,1.0,3.0,70,0.00,,,0.03,Wunderground v.1.15,2013-01-19 01:58:00,
2013-01-18 21:04:00,49.2,38.7,30.39,NE,56,2.0,2.0,67,0.00,,,0.03,Wunderground v.1.15,2013-01-19 02:04:00,
2013-01-18 21:10:00,49.4,37.7,30.39,NE,54,2.0,2.0,64,0.00,,,0.03,Wunderground v.1.15,2013-01-19 02:10:00,
2013-01-18 21:16:00,49.5,37.4,30.39,NE,47,3.0,6.0,63,0.00,,,0.03,Wunderground v.1.15,2013-01-19 02:16:00,
2013-01-18 21:22:00,49.4,37.7,30.39,North,0,3.0,3.0,64,0.00,,,0.03,Wunderground v.1.15,2013-01-19 02:22:00,
2013-01-18 21:28:00,49.2,37.5,30.39,ENE,66,3.0,3.0,64,0.00,,,0.03,Wunderground v.1.15,2013-01-19 02:28:00,
2013-01-18 21:34:00,49.1,37.8,30.39,ENE,59,3.0,4.0,65,0.00,,,0.03,Wunderground v.1.15,2013-01-19 02:34:00,
2013-01-18 21:40:00,48.6,37.4,30.39,NE,47,3.0,3.0,65,0.00,,,0.03,Wunderground v.1.15,2013-01-19 02:40:00,
2013-01-18 21:46:00,48.5,37.3,30.39,NE,44,4.0,5.0,65,0.00,,,0.03,Wunderground v.1.15,2013-01-19 02:46:00,
2013-01-18 21:52:00,48.3,37.5,30.39,NNE,20,3.0,5.0,66,0.00,,,0.03,Wunderground v.1.15,2013-01-19 02:52:00,
2013-01-18 21:58:00,48.3,37.8,30.39,NNE,28,4.0,6.0,67,0.00,,,0.03,Wunderground v.1.15,2013-01-19 02:58:00,
2013-01-18 22:04:00,48.2,37.0,30.39,ENE,61,4.0,4.0,65,0.00,,,0.03,Wunderground v.1.15,2013-01-19 03:04:00,
2013-01-18 22:10:00,48.2,37.4,30.39,NNE,24,5.0,5.0,66,0.00,,,0.03,Wunderground v.1.15,2013-01-19 03:10:00,
2013-01-18 22:16:00,48.2,37.4,30.38,NNE,30,5.0,10.0,66,0.00,,,0.03,Wunderground v.1.15,2013-01-19 03:16:00,
2013-01-18 22:22:00,48.2,37.0,30.38,NE,40,6.0,7.0,65,0.00,,,0.03,Wunderground v.1.15,2013-01-19 03:22:00,
2013-01-18 22:28:00,48.3,38.2,30.38,NE,41,6.0,7.0,68,0.00,,,0.03,Wunderground v.1.15,2013-01-19 03:28:00,
2013-01-18 22:34:00,48.3,38.2,30.38,NNE,23,6.0,8.0,68,0.00,,,0.03,Wunderground v.1.15,2013-01-19 03:34:00,
2013-01-18 22:40:00,48.2,37.4,30.38,NNE,28,6.0,6.0,66,0.00,,,0.03,Wunderground v.1.15,2013-01-19 03:40:00,
2013-01-18 22:46:00,48.0,37.6,30.38,NE,41,6.0,8.0,67,0.00,,,0.03,Wunderground v.1.15,2013-01-19 03:46:00,
2013-01-18 22:52:00,48.0,38.3,30.38,NNE,23,5.0,6.0,69,0.00,,,0.03,Wunderground v.1.15,2013-01-19 03:52:00,
2013-01-18 22:58:00,48.2,38.5,30.38,NE,48,4.0,7.0,69,0.00,,,0.03,Wunderground v.1.15,2013-01-19 03:58:00,
2013-01-18 23:04:00,47.9,38.2,30.38,NNE,28,5.0,10.0,69,0.00,,,0.00,Wunderground v.1.15,2013-01-19 04:04:00,
2013-01-18 23:10:00,47.7,38.4,30.38,NE,34,6.0,7.0,70,0.00,,,0.00,Wunderground v.1.15,2013-01-19 04:10:00,
2013-01-18 23:16:00,47.6,38.7,30.38,North,11,5.0,7.0,71,0.00,,,0.00,Wunderground v.1.15,2013-01-19 04:16:00,
2013-01-18 23:22:00,47.6,38.7,30.38,NNE,14,5.0,6.0,71,0.00,,,0.00,Wunderground v.1.15,2013-01-19 04:22:00,
2013-01-18 23:28:00,47.4,38.8,30.38,North,0,5.0,6.0,72,0.00,,,0.00,Wunderground v.1.15,2013-01-19 04:28:00,
2013-01-18 23:34:00,47.4,38.8,30.37,NE,41,5.0,8.0,72,0.00,,,0.00,Wunderground v.1.15,2013-01-19 04:34:00,
2013-01-18 23:40:00,47.6,39.4,30.37,NNE,24,6.0,14.0,73,0.00,,,0.00,Wunderground v.1.15,2013-01-19 04:40:00,
2013-01-18 23:46:00,47.6,40.1,30.36,North,7,8.0,14.0,75,0.00,,,0.00,Wunderground v.1.15,2013-01-19 04:46:00,
2013-01-18 23:52:00,47.6,39.7,30.36,North,1,8.0,8.0,74,0.00,,,0.00,Wunderground v.1.15,2013-01-19 04:52:00,
2013-01-18 23:58:00,47.6,39.7,30.36,NE,34,8.0,8.0,74,0.00,,,0.00,Wunderground v.1.15,2013-01-19 04:58:00,